Time;durP1;ratioP1;P1;durP2;ratioP2;P2;SDS_P1;SDS_P2;PMS_P1;PMS_P2;Temp;Humidity;BMP_temperature;BMP_pressure;BME280_temperature;BME280_humidity;BME280_pressure;Samples;Min_cycle;Max_cycle;Signal;HPM_P1;HPM_P2
2022/07/02 00:04:50;;;;;;;0.83;0.63;;;;;;;15.30;61.05;96495.13;10363893;28;98436;-76
2022/07/02 00:09:55;;;;;;;3.58;0.73;;;;;;;15.24;60.78;96494.00;10365844;28;97044;-74
2022/07/02 00:15:00;;;;;;;1.48;0.73;;;;;;;15.12;60.89;96490.94;10354988;28;96922;-74
2022/07/02 00:20:04;;;;;;;1.20;0.70;;;;;;;15.01;61.26;96491.31;10364885;28;97062;-72
2022/07/02 00:25:07;;;;;;;1.58;0.63;;;;;;;14.80;61.72;96496.28;10369145;28;96939;-72
2022/07/02 00:30:14;;;;;;;2.22;0.85;;;;;;;14.55;61.94;96499.75;10385330;28;97038;-73
2022/07/02 00:35:18;;;;;;;1.80;0.65;;;;;;;14.40;62.82;96495.34;10373424;28;96772;-72
2022/07/02 00:40:22;;;;;;;2.30;0.90;;;;;;;14.21;63.57;96494.69;10382960;28;96916;-72
2022/07/02 00:45:27;;;;;;;1.77;0.73;;;;;;;14.08;64.16;96494.34;10372853;28;97179;-72
2022/07/02 00:50:30;;;;;;;1.05;0.68;;;;;;;13.87;64.41;96494.81;10370061;28;96848;-72
2022/07/02 00:55:33;;;;;;;1.48;0.80;;;;;;;13.83;64.61;96499.56;10373534;28;97224;-72
2022/07/02 01:00:38;;;;;;;1.48;0.80;;;;;;;13.73;65.34;96498.91;10352887;28;96940;-75
2022/07/02 01:05:41;;;;;;;1.20;0.50;;;;;;;13.71;64.73;96488.53;10343039;28;98030;-75
2022/07/02 01:10:47;;;;;;;1.48;0.70;;;;;;;13.65;64.67;96501.50;10347993;28;97534;-75
2022/07/02 01:15:52;;;;;;;3.97;0.60;;;;;;;13.62;64.33;96492.16;10363832;28;98387;-72
2022/07/02 01:20:54;;;;;;;1.37;0.67;;;;;;;13.47;64.49;96491.13;10352076;28;98327;-72
2022/07/02 01:25:59;;;;;;;3.05;0.82;;;;;;;13.34;65.46;96499.41;10347570;28;97852;-71
2022/07/02 01:31:02;;;;;;;2.70;1.30;;;;;;;13.21;65.82;96507.75;10346446;28;98927;-73
2022/07/02 01:36:05;;;;;;;3.78;1.27;;;;;;;13.09;66.75;96511.63;10356532;28;101057;-73
2022/07/02 01:46:29;;;;;;;1.50;1.00;;;;;;;12.78;68.35;96526.00;10372634;28;97506;-70
2022/07/02 01:51:33;;;;;;;3.97;1.20;;;;;;;12.65;69.29;96525.59;10367678;28;98852;-72
2022/07/02 01:56:37;;;;;;;4.15;0.95;;;;;;;12.63;69.67;96519.66;10371421;28;97031;-72
2022/07/02 02:01:40;;;;;;;1.17;0.90;;;;;;;12.48;69.77;96520.22;10370742;28;97652;-72
2022/07/02 02:06:43;;;;;;;2.00;1.10;;;;;;;12.33;70.84;96532.22;10373014;28;98066;-72
2022/07/02 02:11:48;;;;;;;2.35;0.80;;;;;;;12.24;71.20;96522.66;10369883;28;97920;-72
2022/07/02 02:16:53;;;;;;;0.80;0.80;;;;;;;12.06;71.40;96528.72;10370116;28;96912;-72
2022/07/02 02:21:56;;;;;;;1.10;0.77;;;;;;;12.03;71.16;96529.03;10361897;28;96851;-72
2022/07/02 02:27:01;;;;;;;3.92;0.90;;;;;;;12.07;70.96;96532.97;10369493;28;100517;-72
2022/07/02 02:32:04;;;;;;;1.77;0.87;;;;;;;12.04;70.55;96533.31;10371506;28;100226;-71
2022/07/02 02:37:07;;;;;;;1.48;1.05;;;;;;;11.89;71.12;96534.78;10369724;28;96949;-71
2022/07/02 02:42:11;;;;;;;2.15;0.98;;;;;;;11.80;71.29;96535.66;10368388;28;96870;-72
2022/07/02 02:47:14;;;;;;;4.57;0.70;;;;;;;11.67;71.35;96531.59;10369311;28;96701;-72
2022/07/02 02:52:17;;;;;;;2.50;0.90;;;;;;;11.60;72.16;96521.88;10366028;28;96776;-72
2022/07/02 02:57:21;;;;;;;2.85;0.85;;;;;;;11.48;72.93;96532.53;10368169;28;97707;-71
2022/07/02 03:02:24;;;;;;;0.93;0.73;;;;;;;11.46;72.57;96528.44;10367371;28;96999;-71
2022/07/02 03:07:27;;;;;;;2.25;0.85;;;;;;;11.46;72.73;96538.91;10367294;28;96913;-71
2022/07/02 03:12:31;;;;;;;1.55;0.90;;;;;;;11.39;73.06;96535.22;10365240;28;97728;-71
2022/07/02 03:17:34;;;;;;;3.10;0.97;;;;;;;11.35;73.22;96543.34;10367397;28;96739;-71
2022/07/02 03:22:37;;;;;;;2.45;0.98;;;;;;;11.29;73.34;96548.31;10370718;28;102232;-71
2022/07/02 03:27:41;;;;;;;1.05;0.85;;;;;;;11.21;73.37;96543.81;10366907;28;96900;-71
2022/07/02 03:32:43;;;;;;;0.70;0.63;;;;;;;11.11;73.61;96548.25;10366967;28;96922;-71
2022/07/02 03:37:46;;;;;;;2.88;0.82;;;;;;;11.07;73.87;96549.50;10369429;28;97008;-71
2022/07/02 03:42:50;;;;;;;2.85;0.88;;;;;;;11.05;73.92;96560.13;10367409;28;96899;-71
2022/07/02 03:47:53;;;;;;;1.35;0.50;;;;;;;10.98;73.21;96565.09;10366359;28;96768;-72
2022/07/02 03:52:56;;;;;;;2.53;0.80;;;;;;;10.94;73.74;96562.88;10370348;28;96879;-72
2022/07/02 03:58:00;;;;;;;1.48;0.85;;;;;;;10.89;74.14;96552.84;10365207;28;97759;-72
2022/07/02 04:03:03;;;;;;;2.97;0.88;;;;;;;10.87;74.76;96551.34;10365976;28;97027;-72
2022/07/02 04:08:06;;;;;;;0.88;0.73;;;;;;;10.85;74.87;96550.69;10367562;28;97224;-71
2022/07/02 04:13:12;;;;;;;2.92;1.00;;;;;;;10.84;74.64;96546.41;10365604;28;96934;-72
2022/07/02 04:18:14;;;;;;;2.65;0.90;;;;;;;10.72;75.45;96535.28;10354520;28;97112;-72
2022/07/02 04:23:17;;;;;;;1.23;0.90;;;;;;;10.78;75.90;96542.56;10364190;28;96993;-72
2022/07/02 04:28:23;;;;;;;1.70;0.73;;;;;;;10.89;75.19;96545.00;10364934;28;98167;-71
2022/07/02 04:33:26;;;;;;;3.25;0.77;;;;;;;11.03;74.83;96537.69;10363076;28;96963;-72
2022/07/02 04:38:29;;;;;;;1.13;0.60;;;;;;;11.12;74.22;96549.88;10367970;28;97992;-71
2022/07/02 04:43:33;;;;;;;1.30;0.80;;;;;;;11.29;74.50;96532.63;10366478;28;97884;-71
2022/07/02 04:48:36;;;;;;;1.17;0.65;;;;;;;11.48;74.30;96535.16;10367069;28;96758;-71
2022/07/02 04:53:38;;;;;;;1.73;0.80;;;;;;;11.65;73.69;96535.34;10365805;28;96905;-71
2022/07/02 04:58:42;;;;;;;0.70;0.70;;;;;;;11.80;73.52;96519.97;10365443;28;97128;-72
2022/07/02 05:03:45;;;;;;;2.60;0.90;;;;;;;11.93;73.16;96520.41;10361889;28;96955;-72
2022/07/02 05:08:49;;;;;;;2.85;1.00;;;;;;;12.05;73.32;96513.97;10366069;28;97173;-71
2022/07/02 05:13:53;;;;;;;1.30;0.70;;;;;;;12.13;72.57;96528.97;10374270;28;96823;-71
2022/07/02 05:18:55;;;;;;;2.03;0.90;;;;;;;12.27;72.35;96514.50;10368057;28;96832;-72
2022/07/02 05:23:58;;;;;;;1.35;0.77;;;;;;;12.44;71.77;96524.16;10369997;28;96854;-72
2022/07/02 05:29:02;;;;;;;4.00;1.13;;;;;;;12.61;71.61;96504.13;10372649;28;98073;-72
2022/07/02 05:34:05;;;;;;;2.03;0.83;;;;;;;12.85;71.56;96516.53;10368649;28;97620;-71
2022/07/02 05:39:08;;;;;;;2.45;0.90;;;;;;;12.95;71.69;96513.03;10369706;28;98809;-71
2022/07/02 05:44:12;;;;;;;1.65;0.90;;;;;;;13.10;70.91;96523.75;10372618;28;96939;-71
2022/07/02 05:49:15;;;;;;;2.53;0.90;;;;;;;13.22;70.53;96523.34;10371604;28;96827;-71
2022/07/02 05:54:18;;;;;;;1.98;1.20;;;;;;;13.35;70.36;96516.81;10368464;28;96910;-71
2022/07/02 05:59:22;;;;;;;1.92;1.20;;;;;;;13.49;70.59;96529.31;10370310;28;96913;-71
2022/07/02 06:04:25;;;;;;;1.73;1.20;;;;;;;13.63;70.58;96522.66;10371156;28;97368;-71
2022/07/02 06:09:28;;;;;;;4.03;0.80;;;;;;;13.86;70.71;96538.63;10369775;28;96842;-71
2022/07/02 06:14:33;;;;;;;1.27;0.88;;;;;;;14.12;69.69;96535.06;10368734;28;97117;-71
2022/07/02 06:19:38;;;;;;;1.38;1.00;;;;;;;14.33;70.13;96519.69;10366470;28;97897;-71
2022/07/02 06:24:41;;;;;;;2.35;0.90;;;;;;;14.58;69.06;96513.59;10370740;28;97087;-71
2022/07/02 06:29:48;;;;;;;1.13;0.70;;;;;;;14.78;68.55;96514.84;10370912;28;96999;-72
2022/07/02 06:34:51;;;;;;;3.63;0.88;;;;;;;14.96;68.36;96516.47;10369914;28;97779;-73
2022/07/02 06:39:53;;;;;;;1.08;0.80;;;;;;;15.07;67.18;96519.56;10366822;28;97040;-73
2022/07/02 06:44:59;;;;;;;2.03;0.80;;;;;;;15.22;67.76;96517.06;10368329;28;97100;-75
2022/07/02 06:50:02;;;;;;;2.60;1.00;;;;;;;15.40;66.56;96508.09;10370727;28;97284;-75
2022/07/02 06:55:05;;;;;;;2.17;1.00;;;;;;;15.55;66.10;96508.19;10366126;28;100428;-74
2022/07/02 07:00:11;;;;;;;1.13;0.80;;;;;;;15.67;65.48;96517.41;10365867;28;97154;-73
2022/07/02 07:05:14;;;;;;;2.10;1.02;;;;;;;15.90;65.21;96511.34;10366291;28;96939;-74
2022/07/02 07:10:16;;;;;;;1.13;1.00;;;;;;;16.07;66.22;96526.03;10366112;28;97122;-74
2022/07/02 07:15:20;;;;;;;1.05;0.95;;;;;;;16.17;67.07;96516.09;10367465;28;96977;-73
2022/07/02 07:20:27;;;;;;;2.58;1.10;;;;;;;16.19;67.07;96510.63;10367275;28;100102;-73
2022/07/02 07:25:30;;;;;;;1.92;1.20;;;;;;;16.35;66.48;96520.25;10367866;28;100318;-73
2022/07/02 07:30:34;;;;;;;1.60;1.23;;;;;;;16.47;66.58;96516.19;10368971;28;97939;-73
2022/07/02 07:35:37;;;;;;;1.33;1.03;;;;;;;16.56;66.49;96504.56;10366230;28;97131;-74
2022/07/02 07:40:40;;;;;;;1.15;0.88;;;;;;;16.74;66.17;96503.41;10369150;28;97713;-75
2022/07/02 07:45:46;;;;;;;1.95;1.00;;;;;;;16.83;65.21;96486.50;10366001;28;97962;-74
2022/07/02 07:50:49;;;;;;;2.20;1.23;;;;;;;16.87;65.70;96489.63;10364157;28;96953;-72
2022/07/02 07:55:52;;;;;;;1.85;1.17;;;;;;;16.91;65.78;96499.63;10366541;28;97058;-73
2022/07/02 08:00:57;;;;;;;1.92;0.98;;;;;;;17.05;65.60;96490.09;10366340;28;96768;-74
2022/07/02 08:05:59;;;;;;;2.25;1.23;;;;;;;17.16;65.52;96489.63;10353139;28;97877;-74
2022/07/02 08:11:03;;;;;;;1.58;0.98;;;;;;;17.27;65.06;96491.00;10368158;28;97007;-74
2022/07/02 08:16:07;;;;;;;1.27;1.03;;;;;;;17.32;66.22;96491.25;10363937;28;96954;-73
2022/07/02 08:21:10;;;;;;;1.50;1.10;;;;;;;17.39;65.49;96496.63;10359271;28;97228;-72
2022/07/02 08:26:13;;;;;;;1.60;0.98;;;;;;;17.59;65.63;96496.84;10366806;28;97062;-74
2022/07/02 08:31:17;;;;;;;1.98;1.30;;;;;;;17.76;64.79;96495.63;10366451;28;97871;-74
2022/07/02 08:36:20;;;;;;;2.60;1.40;;;;;;;17.86;64.46;96490.09;10360331;28;98112;-74
2022/07/02 08:41:24;;;;;;;1.10;1.00;;;;;;;17.97;64.83;96501.97;10366240;28;97132;-73
2022/07/02 08:46:30;;;;;;;3.13;1.38;;;;;;;18.03;64.56;96511.81;10370836;28;96967;-74
2022/07/02 08:51:33;;;;;;;1.77;1.30;;;;;;;18.11;64.20;96497.63;10373359;28;96752;-74
2022/07/02 08:56:37;;;;;;;1.15;1.00;;;;;;;18.35;63.44;96499.09;10376168;28;96780;-74
2022/07/02 09:01:41;;;;;;;2.30;1.30;;;;;;;18.58;63.13;96488.28;10376831;28;97575;-73
2022/07/02 09:06:46;;;;;;;2.33;1.30;;;;;;;18.70;61.97;96496.50;10373663;28;97181;-74
2022/07/02 09:11:49;;;;;;;3.65;1.30;;;;;;;18.61;61.99;96477.31;10373393;28;96867;-75
2022/07/02 09:16:53;;;;;;;1.85;1.20;;;;;;;18.69;61.98;96485.13;10373702;28;96938;-75
2022/07/02 09:21:56;;;;;;;1.63;1.25;;;;;;;18.88;62.79;96481.00;10376785;28;97289;-75
2022/07/02 09:27:00;;;;;;;2.47;1.40;;;;;;;18.98;62.10;96477.19;10379031;28;97800;-74
2022/07/02 09:32:05;;;;;;;3.93;1.40;;;;;;;18.98;62.09;96474.53;10373305;28;101908;-75
2022/07/02 09:37:13;;;;;;;1.30;1.08;;;;;;;19.10;62.04;96488.03;10369182;28;97478;-75
2022/07/02 09:42:24;;;;;;;1.77;1.30;;;;;;;19.10;61.30;96486.22;10375643;28;96783;-75
2022/07/02 09:47:33;;;;;;;2.17;1.30;;;;;;;19.21;60.45;96477.72;10371414;28;97386;-75
2022/07/02 09:52:37;;;;;;;2.22;1.13;;;;;;;19.42;60.79;96473.34;10381230;28;96860;-68
2022/07/02 09:57:49;;;;;;;1.67;1.43;;;;;;;19.46;60.09;96473.75;10375123;28;96954;-76
2022/07/02 10:02:56;;;;;;;1.27;1.00;;;;;;;19.62;59.82;96482.16;10364587;28;97110;-74
2022/07/02 10:08:00;;;;;;;2.50;1.20;;;;;;;19.88;59.82;96472.69;10373831;28;98526;-74
2022/07/02 10:13:04;;;;;;;2.72;1.17;;;;;;;20.10;58.85;96459.28;10369476;28;97484;-74
2022/07/02 10:18:08;;;;;;;1.27;0.97;;;;;;;20.18;58.76;96472.31;10367872;28;98129;-74
2022/07/02 10:23:13;;;;;;;2.33;1.40;;;;;;;20.17;58.43;96454.78;10369905;28;96827;-74
2022/07/02 10:28:16;;;;;;;2.35;1.13;;;;;;;20.25;57.87;96467.88;10368390;28;96886;-74
2022/07/02 10:33:28;;;;;;;1.67;1.23;;;;;;;20.42;58.63;96462.13;10369225;28;96883;-74
2022/07/02 10:38:33;;;;;;;1.48;1.13;;;;;;;20.47;58.57;96460.50;10367402;28;96943;-74
2022/07/02 10:43:38;;;;;;;2.50;1.30;;;;;;;20.69;57.87;96458.44;10369906;28;96878;-74
2022/07/02 10:48:50;;;;;;;1.77;1.13;;;;;;;20.84;56.80;96450.31;10368574;28;96878;-74
2022/07/02 10:53:57;;;;;;;1.20;1.10;;;;;;;20.79;56.57;96452.75;10369218;28;96753;-74
2022/07/02 10:59:00;;;;;;;1.27;0.90;;;;;;;20.88;56.94;96445.38;10371211;28;97488;-74
2022/07/02 11:04:06;;;;;;;3.10;1.30;;;;;;;20.98;56.18;96429.84;10366820;28;97201;-74
2022/07/02 11:09:09;;;;;;;1.33;1.10;;;;;;;20.97;56.96;96427.38;10368646;28;96792;-74
2022/07/02 11:14:15;;;;;;;1.10;1.00;;;;;;;20.94;56.56;96415.31;10369972;28;96850;-74
2022/07/02 11:19:24;;;;;;;3.45;1.60;;;;;;;21.18;56.38;96410.34;10366283;28;98521;-74
2022/07/02 11:24:28;;;;;;;1.60;0.90;;;;;;;21.45;55.68;96403.06;10366469;28;96971;-74
2022/07/02 11:29:31;;;;;;;;;;;;;;;21.71;55.62;96412.78;10366028;28;96759;-74
2022/07/02 11:34:35;;;;;;;1.85;1.00;;;;;;;21.91;54.89;96406.53;10369976;28;96880;-74
2022/07/02 11:39:38;;;;;;;1.73;1.08;;;;;;;22.03;55.17;96410.91;10367781;28;97053;-74
2022/07/02 11:44:40;;;;;;;2.58;1.10;;;;;;;22.09;54.22;96414.56;10368699;28;98517;-74
2022/07/02 11:49:46;;;;;;;1.47;1.00;;;;;;;22.16;55.47;96407.38;10369917;28;96911;-74
2022/07/02 11:54:48;;;;;;;2.25;1.10;;;;;;;22.37;54.45;96394.69;10349832;28;98713;-75
2022/07/02 11:59:52;;;;;;;2.88;0.95;;;;;;;22.37;54.64;96394.69;10365817;28;96864;-75
2022/07/02 12:04:56;;;;;;;2.15;1.15;;;;;;;22.59;53.98;96387.94;10367330;28;96909;-74
2022/07/02 12:09:59;;;;;;;;;;;;;;;22.76;54.01;96379.41;10366324;28;97101;-74
2022/07/02 12:15:03;;;;;;;1.50;0.98;;;;;;;22.79;52.35;96382.44;10363824;28;98402;-74
2022/07/02 12:20:08;;;;;;;2.53;1.00;;;;;;;22.93;52.24;96380.44;10367567;28;97185;-74
2022/07/02 12:25:10;;;;;;;2.08;1.00;;;;;;;23.10;51.65;96369.16;10372320;28;98065;-74
2022/07/02 12:30:14;;;;;;;0.98;0.82;;;;;;;23.35;51.36;96369.91;10369965;28;96816;-74
2022/07/02 12:35:18;;;;;;;1.58;0.90;;;;;;;23.59;50.63;96366.53;10370384;28;98584;-75
2022/07/02 12:40:22;;;;;;;1.35;0.90;;;;;;;23.80;50.46;96367.84;10371921;28;96958;-74
2022/07/02 12:45:27;;;;;;;1.63;0.80;;;;;;;23.98;49.68;96357.09;10371184;28;97644;-74
2022/07/02 12:50:33;;;;;;;1.10;0.98;;;;;;;23.98;49.25;96348.28;10371541;28;97048;-74
2022/07/02 12:55:37;;;;;;;1.45;1.02;;;;;;;24.04;49.32;96356.19;10375412;28;96813;-74
2022/07/02 13:00:43;;;;;;;1.60;1.00;;;;;;;24.17;48.68;96346.38;10370948;28;97206;-74
2022/07/02 13:05:49;;;;;;;2.25;1.02;;;;;;;24.25;48.18;96357.50;10372978;28;97098;-74
2022/07/02 13:10:55;;;;;;;0.80;0.80;;;;;;;23.95;48.27;96346.91;10371441;28;96938;-74
2022/07/02 13:15:58;;;;;;;1.52;1.00;;;;;;;24.08;48.54;96346.69;10368991;28;96937;-74
2022/07/02 13:21:03;;;;;;;1.50;1.00;;;;;;;24.40;49.61;96349.06;10369668;28;97241;-74
2022/07/02 13:26:05;;;;;;;1.42;0.88;;;;;;;24.74;47.28;96338.53;10372203;28;97518;-74
2022/07/02 13:31:08;;;;;;;1.00;0.90;;;;;;;24.99;45.72;96340.16;10369859;28;97099;-73
2022/07/02 13:36:12;;;;;;;1.85;1.13;;;;;;;25.20;46.12;96331.50;10374052;28;97136;-74
2022/07/02 13:41:15;;;;;;;0.82;0.80;;;;;;;25.32;45.39;96338.63;10371096;28;96884;-74
2022/07/02 13:46:18;;;;;;;1.10;0.90;;;;;;;25.44;44.45;96332.22;10368238;28;96798;-74
2022/07/02 13:51:23;;;;;;;0.93;0.80;;;;;;;25.76;44.76;96338.94;10369078;28;96854;-74
2022/07/02 13:56:25;;;;;;;1.90;1.00;;;;;;;25.74;44.29;96335.69;10369347;28;97373;-74
2022/07/02 14:01:28;;;;;;;1.02;0.93;;;;;;;26.02;44.42;96342.03;10371198;28;97076;-74
2022/07/02 14:06:33;;;;;;;0.80;0.70;;;;;;;26.96;42.86;96335.91;10369474;28;97463;-75
2022/07/02 14:11:36;;;;;;;1.98;0.95;;;;;;;28.79;40.15;96336.94;10368141;28;96863;-74
2022/07/02 14:16:39;;;;;;;0.73;0.70;;;;;;;31.90;35.68;96338.84;10372586;28;96772;-75
2022/07/02 14:21:43;;;;;;;;;;;;;;;34.40;35.85;96318.97;10364572;28;98579;-75
2022/07/02 14:26:45;;;;;;;3.80;0.75;;;;;;;36.82;31.07;96328.81;10365957;28;97413;-76
2022/07/02 14:31:50;;;;;;;0.50;0.50;;;;;;;39.28;28.03;96324.72;10371987;28;98054;-75
2022/07/02 14:36:54;;;;;;;1.10;0.47;;;;;;;40.50;27.28;96329.16;10367646;28;97332;-75
2022/07/02 14:42:02;;;;;;;1.63;0.50;;;;;;;41.56;24.27;96328.59;10368376;28;97609;-73
2022/07/02 14:47:05;;;;;;;3.38;0.60;;;;;;;42.30;23.22;96317.34;10369344;28;97519;-73
2022/07/02 14:52:09;;;;;;;0.40;0.40;;;;;;;42.68;21.84;96311.28;10365834;28;97954;-74
2022/07/02 14:57:12;;;;;;;0.93;0.70;;;;;;;41.56;22.21;96312.94;10369210;28;96962;-74
2022/07/02 15:02:15;;;;;;;0.40;0.40;;;;;;;41.25;22.66;96308.88;10369961;28;98595;-75
2022/07/02 15:07:19;;;;;;;0.40;0.40;;;;;;;41.48;21.96;96300.16;10366083;28;97308;-74
2022/07/02 15:12:22;;;;;;;6.90;6.40;;;;;;;41.54;22.38;96296.03;10367101;28;96892;-73
2022/07/02 15:17:25;;;;;;;1.10;0.60;;;;;;;42.09;20.54;96281.88;10368797;28;97914;-73
2022/07/02 15:22:42;;;;;;;0.52;0.30;;;;;;;43.56;19.45;96279.13;10364423;28;97225;-74
2022/07/02 15:27:49;;;;;;;0.43;0.43;;;;;;;44.34;19.48;96281.81;10362127;28;100387;-75
2022/07/02 15:32:53;;;;;;;0.50;0.40;;;;;;;44.87;18.65;96270.88;10365667;28;97233;-75
2022/07/02 15:37:58;;;;;;;0.95;0.50;;;;;;;43.59;19.34;96265.44;10366743;28;96824;-77
2022/07/02 15:43:05;;;;;;;0.95;0.40;;;;;;;43.57;19.69;96266.94;10367130;28;97062;-75
2022/07/02 15:48:10;;;;;;;0.88;0.60;;;;;;;41.91;20.47;96263.00;10362337;28;96942;-74
2022/07/02 15:53:21;;;;;;;1.67;0.50;;;;;;;41.45;20.90;96256.97;10366449;28;96966;-74
2022/07/02 15:58:31;;;;;;;1.92;1.83;;;;;;;41.72;20.72;96255.41;10363302;28;97604;-75
2022/07/02 16:03:39;;;;;;;0.82;0.55;;;;;;;41.64;20.64;96259.09;10363598;28;96937;-70
2022/07/02 16:08:43;;;;;;;0.90;0.45;;;;;;;41.51;21.04;96255.59;10362361;28;96875;-70
2022/07/02 16:13:47;;;;;;;0.68;0.45;;;;;;;41.73;19.97;96247.97;10367608;28;97197;-73
2022/07/02 16:18:57;;;;;;;2.13;0.70;;;;;;;41.71;19.28;96244.78;10362891;28;97268;-81
2022/07/02 16:24:02;;;;;;;0.50;0.35;;;;;;;42.15;18.59;96239.31;10365214;28;102654;-77
2022/07/02 16:29:05;;;;;;;0.82;0.40;;;;;;;42.53;17.87;96243.41;10358526;28;97874;-75
2022/07/02 16:34:15;;;;;;;1.02;0.40;;;;;;;42.50;18.68;96244.13;10356999;28;97950;-76
2022/07/02 16:39:19;;;;;;;0.47;0.47;;;;;;;42.41;18.59;96238.81;10364261;28;96936;-78
2022/07/02 16:44:23;;;;;;;0.50;0.40;;;;;;;41.34;19.51;96239.41;10367570;28;97058;-74
2022/07/02 16:49:32;;;;;;;0.60;0.40;;;;;;;42.02;18.63;96236.66;10361944;28;97528;-75
2022/07/02 16:54:38;;;;;;;0.77;0.45;;;;;;;42.71;17.59;96236.41;10358403;28;96766;-76
2022/07/02 16:59:42;;;;;;;1.02;0.60;;;;;;;43.35;16.98;96236.25;10363870;28;97908;-75
2022/07/02 17:04:49;;;;;;;0.98;0.40;;;;;;;43.40;16.72;96238.72;10365902;28;96975;-75
2022/07/02 17:09:53;;;;;;;0.40;0.30;;;;;;;43.43;16.14;96240.75;10369918;28;96895;-76
2022/07/02 17:14:56;;;;;;;0.40;0.40;;;;;;;42.13;17.79;96236.09;10368184;28;96879;-75
2022/07/02 17:19:59;;;;;;;0.50;0.43;;;;;;;42.14;17.81;96233.00;10370869;28;96829;-75
2022/07/02 17:25:04;;;;;;;0.45;0.30;;;;;;;42.05;18.10;96239.84;10370269;28;96989;-76
2022/07/02 17:30:09;;;;;;;0.55;0.30;;;;;;;41.71;17.77;96239.28;10366266;28;97124;-76
2022/07/02 17:35:12;;;;;;;1.40;0.28;;;;;;;41.37;18.37;96241.50;10371049;28;96857;-76
2022/07/02 17:40:16;;;;;;;0.63;0.25;;;;;;;40.83;18.12;96242.59;10367250;28;96809;-76
2022/07/02 17:45:19;;;;;;;0.40;0.40;;;;;;;40.39;19.65;96240.38;10368761;28;97082;-76
2022/07/02 17:50:21;;;;;;;1.92;0.40;;;;;;;40.34;19.96;96248.81;10372090;28;97002;-75
2022/07/02 17:55:26;;;;;;;0.57;0.43;;;;;;;39.65;20.77;96244.88;10369740;28;96885;-76
2022/07/02 18:00:29;;;;;;;2.45;0.57;;;;;;;38.92;20.22;96240.56;10367309;28;97905;-78
2022/07/02 18:05:32;;;;;;;0.30;0.30;;;;;;;38.39;21.03;96251.72;10368099;28;98063;-75
2022/07/02 18:10:37;;;;;;;0.80;0.30;;;;;;;37.88;21.08;96243.34;10373078;28;96855;-76
2022/07/02 18:15:40;;;;;;;1.23;0.38;;;;;;;36.93;21.90;96253.09;10368332;28;96765;-75
2022/07/02 18:20:48;;;;;;;2.28;1.05;;;;;;;34.08;25.14;96260.97;10368631;28;96869;-75
2022/07/02 18:25:52;;;;;;;1.60;1.13;;;;;;;31.84;27.36;96264.31;10364084;28;99197;-75
2022/07/02 18:30:55;;;;;;;1.02;0.65;;;;;;;30.50;28.87;96258.84;10357740;28;98266;-74
2022/07/02 18:35:58;;;;;;;0.98;0.50;;;;;;;29.55;30.64;96265.69;10367535;28;96769;-74
2022/07/02 18:41:02;;;;;;;3.13;0.80;;;;;;;28.60;31.98;96270.22;10371647;28;97044;-75
2022/07/02 18:46:05;;;;;;;2.60;0.80;;;;;;;28.14;32.51;96275.31;10368398;28;97712;-74
2022/07/02 18:51:08;;;;;;;2.53;1.00;;;;;;;27.83;32.43;96269.72;10364563;28;97022;-73
2022/07/02 18:56:12;;;;;;;1.40;1.00;;;;;;;27.53;33.21;96270.25;10342357;28;96881;-73
2022/07/02 19:01:15;;;;;;;3.00;2.00;;;;;;;27.12;33.47;96270.66;10353025;28;97942;-73
2022/07/02 19:06:19;;;;;;;1.67;1.20;;;;;;;26.61;34.83;96274.63;10344238;28;96838;-74
2022/07/02 19:11:23;;;;;;;2.00;1.02;;;;;;;26.16;35.58;96279.88;10342739;28;98057;-73
2022/07/02 19:16:26;;;;;;;5.82;3.55;;;;;;;25.33;37.30;96278.78;10339055;28;97035;-74
2022/07/02 19:21:29;;;;;;;5.60;1.70;;;;;;;24.49;38.84;96283.56;10338640;28;97184;-73
2022/07/02 19:31:56;;;;;;;2.08;0.80;;;;;;;23.18;39.87;96288.91;10367278;28;96775;-73
2022/07/02 19:36:58;;;;;;;1.58;0.60;;;;;;;22.79;39.75;96296.41;10365325;28;96854;-75
2022/07/02 19:42:03;;;;;;;1.95;0.80;;;;;;;22.49;40.20;96291.84;10367212;28;98069;-75
2022/07/02 19:47:07;;;;;;;2.67;0.80;;;;;;;22.13;39.85;96293.38;10368322;28;97320;-75
2022/07/02 19:52:09;;;;;;;2.53;0.63;;;;;;;21.67;40.13;96305.22;10366731;28;97071;-75
2022/07/02 19:57:14;;;;;;;4.20;0.50;;;;;;;21.45;40.38;96310.88;10365015;28;97016;-75
2022/07/02 20:02:17;;;;;;;3.95;0.60;;;;;;;20.99;41.42;96311.94;10367564;28;96699;-75
2022/07/02 20:07:20;;;;;;;1.83;0.50;;;;;;;20.51;42.45;96318.44;10365282;28;96820;-75
2022/07/02 20:12:24;;;;;;;3.28;0.57;;;;;;;20.41;42.32;96318.06;10360720;28;96887;-75
2022/07/02 20:17:27;;;;;;;2.90;0.68;;;;;;;20.38;41.79;96332.53;10369821;28;97179;-75
2022/07/02 20:22:30;;;;;;;0.82;0.40;;;;;;;20.22;42.81;96325.03;10368294;28;96931;-75
2022/07/02 20:27:34;;;;;;;1.45;0.30;;;;;;;20.08;42.68;96331.34;10361955;28;96917;-75
2022/07/02 20:32:37;;;;;;;0.95;0.50;;;;;;;19.90;42.66;96330.13;10367915;28;96682;-74
2022/07/02 20:37:40;;;;;;;3.03;0.50;;;;;;;19.70;43.93;96327.47;10365983;28;96757;-75
2022/07/02 20:42:44;;;;;;;0.95;0.50;;;;;;;19.67;43.20;96327.03;10369988;28;97453;-75
2022/07/02 20:47:47;;;;;;;3.10;0.45;;;;;;;19.60;43.58;96335.78;10371403;28;97746;-75
2022/07/02 20:52:50;;;;;;;2.40;0.60;;;;;;;19.47;43.50;96330.50;10373405;28;97266;-75
2022/07/02 20:57:54;;;;;;;1.73;0.50;;;;;;;19.31;44.68;96338.81;10369148;28;96964;-74
2022/07/02 21:02:57;;;;;;;0.40;0.30;;;;;;;19.14;44.99;96344.47;10371474;28;97332;-75
2022/07/02 21:08:00;;;;;;;1.63;0.50;;;;;;;19.00;44.39;96348.06;10372792;28;96856;-74
2022/07/02 21:13:05;;;;;;;1.05;0.50;;;;;;;18.83;45.61;96343.09;10370978;28;98303;-74
2022/07/02 21:18:08;;;;;;;1.42;0.50;;;;;;;18.72;45.62;96333.06;10372539;28;97654;-74
2022/07/02 21:23:11;;;;;;;0.68;0.60;;;;;;;18.69;46.46;96339.56;10371598;28;97300;-74
2022/07/02 21:28:15;;;;;;;1.00;0.70;;;;;;;18.59;47.27;96340.94;10368364;28;96865;-74
2022/07/02 21:33:18;;;;;;;1.00;0.63;;;;;;;18.66;47.38;96344.44;10372915;28;97313;-75
2022/07/02 21:38:20;;;;;;;2.53;0.90;;;;;;;18.42;48.32;96343.91;10365979;28;102070;-74
2022/07/02 21:43:25;;;;;;;1.55;0.85;;;;;;;18.37;48.91;96359.53;10371439;28;96852;-74
2022/07/02 21:48:28;;;;;;;2.75;1.50;;;;;;;18.30;49.27;96353.38;10372695;28;97065;-74
2022/07/02 21:53:31;;;;;;;1.40;1.05;;;;;;;18.25;49.79;96361.88;10370630;28;97292;-74
2022/07/02 21:58:35;;;;;;;1.85;0.73;;;;;;;18.01;50.52;96364.97;10369818;28;96797;-74
2022/07/02 22:03:38;;;;;;;1.73;1.27;;;;;;;17.99;51.18;96359.88;10369359;28;96912;-74
2022/07/02 22:08:41;;;;;;;1.75;1.00;;;;;;;18.04;51.27;96360.13;10368762;28;97050;-75
2022/07/02 22:13:45;;;;;;;4.50;1.10;;;;;;;18.01;51.38;96355.22;10368414;28;97477;-75
2022/07/02 22:18:48;;;;;;;2.53;1.00;;;;;;;17.94;50.59;96364.91;10360146;28;96982;-75
2022/07/02 22:23:51;;;;;;;4.00;0.80;;;;;;;17.91;50.69;96365.31;10368137;28;97330;-74
2022/07/02 22:28:55;;;;;;;1.20;0.55;;;;;;;17.83;50.32;96362.75;10369729;28;97160;-74
2022/07/02 22:33:58;;;;;;;2.03;0.85;;;;;;;17.87;49.81;96369.31;10370909;28;96695;-75
2022/07/02 22:39:00;;;;;;;4.57;0.90;;;;;;;17.80;50.61;96371.06;10363509;28;98804;-74
2022/07/02 22:44:05;;;;;;;1.10;0.68;;;;;;;17.76;49.36;96367.97;10371337;28;97465;-74
2022/07/02 22:49:07;;;;;;;0.65;0.43;;;;;;;17.78;49.64;96368.59;10367058;28;97020;-74
2022/07/02 22:54:10;;;;;;;2.20;0.90;;;;;;;17.57;50.43;96375.53;10368193;28;98190;-74
2022/07/02 22:59:14;;;;;;;1.42;0.80;;;;;;;17.40;51.38;96373.31;10370716;28;97540;-74
2022/07/02 23:04:17;;;;;;;1.25;0.98;;;;;;;17.25;51.86;96376.00;10367106;28;96765;-74
2022/07/02 23:09:20;;;;;;;1.25;1.00;;;;;;;17.20;52.41;96368.66;10365328;28;97236;-74
2022/07/02 23:14:25;;;;;;;2.45;0.80;;;;;;;17.07;52.77;96373.78;10368867;28;98980;-74
2022/07/02 23:19:28;;;;;;;3.17;0.90;;;;;;;16.99;53.36;96362.31;10367179;28;96929;-74
2022/07/02 23:24:31;;;;;;;3.47;0.88;;;;;;;17.00;53.65;96369.25;10362736;28;97319;-74
2022/07/02 23:29:35;;;;;;;0.82;0.70;;;;;;;16.87;54.63;96374.34;10366807;28;97158;-73
2022/07/02 23:34:38;;;;;;;2.10;1.20;;;;;;;16.78;54.95;96372.81;10366758;28;96995;-73
2022/07/02 23:39:41;;;;;;;1.85;0.73;;;;;;;16.65;55.28;96368.16;10365575;28;102775;-72
2022/07/02 23:44:52;;;;;;;1.75;0.93;;;;;;;16.55;55.71;96375.50;10368929;28;96962;-72
2022/07/02 23:49:55;;;;;;;0.98;0.70;;;;;;;16.49;55.72;96368.34;10367734;28;96755;-73